createdAt,value
2022-11-12T00:01:39.328Z,24.05
2022-11-12T00:07:11.254Z,19.90
2022-11-12T00:12:43.242Z,18.92
2022-11-12T00:15:29.317Z,20.65
2022-11-12T00:21:38.130Z,18.88
2022-11-12T00:27:09.777Z,17.10
2022-11-12T00:32:41.237Z,16.67
2022-11-12T00:35:27.120Z,17.98
2022-11-12T00:41:01.961Z,19.27
2022-11-12T00:43:48.279Z,16.02
2022-11-12T00:46:34.419Z,14.73
2022-11-12T00:49:20.146Z,18.13
2022-11-12T00:52:06.095Z,18.67
2022-11-12T00:57:37.851Z,18.10
2022-11-12T01:00:24.116Z,18.20
2022-11-12T01:03:10.031Z,21.33
2022-11-12T01:06:02.061Z,21.00
2022-11-12T01:08:49.880Z,17.15
2022-11-12T01:11:36.952Z,15.85
2022-11-12T01:14:23.099Z,18.33
2022-11-12T01:17:09.002Z,17.92
2022-11-12T01:22:41.048Z,20.73
2022-11-12T01:25:26.913Z,20.38
2022-11-12T01:30:58.678Z,20.15
2022-11-12T01:33:47.741Z,19.88
2022-11-12T01:36:37.384Z,18.75
2022-11-12T01:39:23.642Z,18.85
2022-11-12T01:42:10.296Z,17.80
2022-11-12T01:44:56.319Z,18.25
2022-11-12T01:47:42.761Z,18.70
2022-11-12T01:50:34.105Z,19.05
2022-11-12T01:53:24.939Z,19.63
2022-11-12T01:56:11.754Z,20.60
2022-11-12T01:59:05.198Z,20.48
2022-11-12T02:01:51.242Z,19.20
2022-11-12T02:04:40.243Z,18.95
2022-11-12T02:07:26.886Z,17.25
2022-11-12T02:10:14.665Z,18.77
2022-11-12T02:13:19.247Z,16.05
2022-11-12T02:16:07.377Z,17.70
2022-11-12T02:18:53.374Z,15.68
2022-11-12T02:24:25.639Z,13.38
2022-11-12T02:27:11.960Z,13.15
2022-11-12T02:29:57.965Z,16.15
2022-11-12T02:32:44.003Z,14.35
2022-11-12T02:35:30.439Z,13.20
2022-11-12T02:38:16.389Z,13.60
2022-11-12T02:41:02.484Z,13.88
2022-11-12T02:43:48.264Z,14.75
2022-11-12T02:46:34.085Z,12.10
2022-11-12T02:49:19.914Z,15.02
2022-11-12T02:52:05.797Z,12.57
2022-11-12T02:57:38.804Z,12.45
2022-11-12T03:00:25.222Z,11.68
2022-11-12T03:03:11.454Z,13.57
2022-11-12T03:06:01.825Z,11.60
2022-11-12T03:08:47.497Z,13.90
2022-11-12T03:11:33.034Z,12.23
2022-11-12T03:14:19.031Z,14.90
2022-11-12T03:17:05.345Z,13.40
2022-11-12T03:19:51.469Z,13.82
2022-11-12T03:22:38.481Z,13.43
2022-11-12T03:25:26.341Z,13.43
2022-11-12T03:28:14.111Z,12.88
2022-11-12T03:31:01.063Z,13.18
2022-11-12T03:33:46.984Z,11.88
2022-11-12T03:36:32.857Z,14.27
2022-11-12T03:39:18.846Z,13.15
2022-11-12T03:42:05.727Z,18.38
2022-11-12T03:44:51.715Z,16.23
2022-11-12T03:50:29.219Z,17.42
2022-11-12T03:53:15.122Z,20.25
2022-11-12T03:58:46.770Z,16.33
2022-11-12T04:01:32.844Z,14.68
2022-11-12T04:04:18.960Z,15.13
2022-11-12T04:07:36.686Z,15.20
2022-11-12T04:10:22.827Z,13.98
2022-11-12T04:13:27.130Z,14.30
2022-11-12T04:16:40.892Z,12.65
2022-11-12T04:19:45.043Z,11.93
2022-11-12T04:22:31.196Z,11.50
2022-11-12T04:25:35.507Z,12.05
2022-11-12T04:28:21.344Z,13.30
2022-11-12T04:31:32.268Z,11.40
2022-11-12T04:34:29.922Z,12.23
2022-11-12T04:37:17.800Z,12.88
2022-11-12T04:40:28.200Z,14.98
2022-11-12T04:43:34.834Z,12.23
2022-11-12T04:46:20.932Z,13.90
2022-11-12T04:49:06.937Z,14.57
2022-11-12T04:52:07.651Z,13.18
2022-11-12T04:54:54.223Z,12.25
2022-11-12T04:57:40.369Z,13.23
2022-11-12T05:00:27.135Z,12.18
2022-11-12T05:03:12.913Z,11.95
2022-11-12T05:06:25.765Z,12.23
2022-11-12T05:09:11.688Z,13.55
2022-11-12T05:11:57.974Z,12.95
2022-11-12T05:14:44.407Z,13.80
2022-11-12T05:17:30.574Z,14.52
2022-11-12T05:20:17.068Z,19.17
2022-11-12T05:23:07.431Z,14.43
2022-11-12T05:25:53.571Z,16.55
2022-11-12T05:28:39.362Z,14.25
2022-11-12T05:31:25.250Z,13.80
2022-11-12T05:34:11.825Z,16.70
2022-11-12T05:36:58.591Z,14.65
2022-11-12T05:39:44.413Z,13.45
2022-11-12T05:42:30.121Z,12.73
2022-11-12T05:45:15.958Z,12.43
2022-11-12T05:48:02.119Z,13.93
2022-11-12T05:54:00.626Z,13.02
2022-11-12T05:56:46.665Z,13.63
2022-11-12T05:59:32.973Z,14.27
2022-11-12T06:02:19.082Z,11.52
2022-11-12T06:05:05.510Z,17.52
2022-11-12T06:07:51.538Z,14.85
2022-11-12T06:10:37.281Z,12.50
2022-11-12T06:13:25.540Z,12.65
2022-11-12T06:16:11.239Z,15.25
2022-11-12T06:18:57.149Z,14.52
2022-11-12T06:21:43.383Z,15.40
2022-11-12T06:24:35.054Z,14.45
2022-11-12T06:27:21.382Z,15.00
2022-11-12T06:30:09.919Z,17.10
2022-11-12T06:32:56.092Z,14.90
2022-11-12T06:35:43.251Z,13.77
2022-11-12T06:38:34.931Z,15.27
2022-11-12T06:41:21.055Z,17.65
2022-11-12T06:46:52.615Z,14.45
2022-11-12T06:52:24.897Z,14.18
2022-11-12T06:57:56.848Z,12.70
2022-11-12T07:00:42.829Z,13.05
2022-11-12T07:03:28.669Z,14.60
2022-11-12T07:06:19.326Z,19.00
2022-11-12T07:09:05.613Z,15.18
2022-11-12T07:11:51.491Z,14.52
2022-11-12T07:14:37.302Z,13.23
2022-11-12T07:17:39.502Z,14.95
2022-11-12T07:20:30.682Z,14.32
2022-11-12T07:23:17.235Z,14.73
2022-11-12T07:26:06.149Z,16.33
2022-11-12T07:28:53.026Z,14.02
2022-11-12T07:31:39.028Z,15.30
2022-11-12T07:34:25.330Z,14.85
2022-11-12T07:37:11.266Z,14.75
2022-11-12T07:39:58.115Z,16.08
2022-11-12T07:42:49.073Z,15.15
2022-11-12T07:45:34.960Z,16.17
2022-11-12T07:48:24.004Z,16.08
2022-11-12T07:51:19.306Z,16.23
2022-11-12T07:54:05.423Z,17.38
2022-11-12T07:56:51.408Z,16.75
2022-11-12T07:59:40.588Z,18.60
2022-11-12T08:02:29.488Z,16.60
2022-11-12T08:05:20.999Z,16.65
2022-11-12T08:08:07.366Z,17.42
2022-11-12T08:10:59.908Z,18.02
2022-11-12T08:13:46.029Z,17.23
2022-11-12T08:16:33.022Z,15.60
2022-11-12T08:19:18.779Z,15.85
2022-11-12T08:24:50.976Z,16.20
2022-11-12T08:27:37.253Z,16.00
2022-11-12T08:30:22.949Z,15.18
2022-11-12T08:33:08.747Z,14.77
2022-11-12T08:35:55.150Z,16.10
2022-11-12T08:41:27.293Z,15.40
2022-11-12T08:46:59.538Z,14.73
2022-11-12T08:49:48.144Z,15.40
2022-11-12T08:52:34.342Z,14.25
2022-11-12T08:58:06.913Z,14.70
2022-11-12T09:00:53.328Z,14.77
2022-11-12T09:03:39.383Z,14.65
2022-11-12T09:06:25.143Z,15.00
2022-11-12T09:11:59.526Z,15.57
2022-11-12T09:14:46.090Z,15.93
2022-11-12T09:17:35.338Z,15.93
2022-11-12T09:20:20.944Z,17.05
2022-11-12T09:23:09.841Z,15.30
2022-11-12T09:25:57.257Z,16.27
2022-11-12T09:28:49.499Z,15.98
2022-11-12T09:31:35.976Z,14.93
2022-11-12T09:34:22.774Z,14.57
2022-11-12T09:37:09.256Z,13.55
2022-11-12T09:42:44.626Z,13.80
2022-11-12T09:45:32.991Z,14.48
2022-11-12T09:48:26.489Z,14.80
2022-11-12T09:51:25.773Z,14.80
2022-11-12T09:54:27.167Z,16.05
2022-11-12T09:57:13.264Z,16.38
2022-11-12T09:59:59.564Z,19.15
2022-11-12T10:03:00.674Z,18.38
2022-11-12T10:05:57.941Z,18.33
2022-11-12T10:08:53.132Z,17.15
2022-11-12T10:12:06.475Z,21.07
2022-11-12T10:15:52.802Z,17.52
2022-11-12T10:19:01.005Z,17.23
2022-11-12T10:22:02.966Z,17.08
2022-11-12T10:24:49.595Z,18.38
2022-11-12T10:27:40.313Z,18.48
2022-11-12T10:30:26.332Z,17.67
2022-11-12T10:33:15.214Z,19.55
2022-11-12T10:36:17.132Z,18.23
2022-11-12T10:39:04.844Z,18.23
2022-11-12T10:42:02.570Z,17.98
2022-11-12T10:44:49.014Z,17.80
2022-11-12T10:47:43.083Z,17.60
2022-11-12T10:50:30.473Z,18.00
2022-11-12T10:53:31.825Z,17.30
2022-11-12T10:56:30.071Z,17.48
2022-11-12T10:59:21.888Z,16.88
2022-11-12T11:02:17.577Z,16.77
2022-11-12T11:05:28.059Z,18.90
2022-11-12T11:08:14.249Z,17.92
2022-11-12T11:11:22.799Z,17.27
2022-11-12T11:14:23.753Z,18.00
2022-11-12T11:17:17.598Z,18.75
2022-11-12T11:20:24.693Z,18.85
2022-11-12T11:23:26.566Z,20.60
2022-11-12T11:26:28.077Z,20.50
2022-11-12T11:29:35.251Z,19.00
2022-11-12T11:33:04.186Z,19.13
2022-11-12T11:35:55.638Z,19.17
2022-11-12T11:39:13.562Z,18.05
2022-11-12T11:42:17.443Z,20.50
2022-11-12T11:45:21.235Z,18.58
2022-11-12T11:48:09.811Z,18.20
2022-11-12T11:51:29.046Z,17.02
2022-11-12T11:55:01.197Z,18.23
2022-11-12T11:58:37.472Z,16.63
2022-11-12T12:02:04.604Z,17.50
2022-11-12T12:04:55.546Z,18.15
2022-11-12T12:08:24.974Z,16.65
2022-11-12T12:11:24.187Z,15.75
2022-11-12T12:14:25.226Z,14.65
2022-11-12T12:17:19.948Z,16.75
2022-11-12T12:20:31.634Z,15.68
2022-11-12T12:23:33.643Z,15.32
2022-11-12T12:26:23.231Z,15.23
2022-11-12T12:29:43.343Z,15.15
2022-11-12T12:32:33.592Z,15.25
2022-11-12T12:35:19.793Z,13.48
2022-11-12T12:38:11.738Z,14.82
2022-11-12T12:41:12.724Z,14.57
2022-11-12T12:44:04.433Z,14.80
2022-11-12T12:46:57.813Z,15.35
2022-11-12T12:49:46.710Z,15.30
2022-11-12T12:53:05.064Z,16.50
2022-11-12T12:56:14.045Z,15.38
2022-11-12T12:59:03.861Z,18.98
2022-11-12T13:01:59.458Z,15.27
2022-11-12T13:04:55.248Z,16.23
2022-11-12T13:07:49.617Z,16.13
2022-11-12T13:10:41.525Z,16.63
2022-11-12T13:13:32.335Z,16.40
2022-11-12T13:16:51.265Z,20.92
2022-11-12T13:20:17.623Z,17.30
2022-11-12T13:23:05.562Z,17.02
2022-11-12T13:25:51.384Z,17.65
2022-11-12T13:29:22.067Z,17.77
2022-11-12T13:32:33.857Z,16.75
2022-11-12T13:35:24.387Z,17.33
2022-11-12T13:38:15.821Z,17.15
2022-11-12T13:41:19.657Z,16.85
2022-11-12T13:44:09.106Z,18.58
2022-11-12T13:46:56.160Z,17.88
2022-11-12T13:49:43.998Z,16.83
2022-11-12T13:52:30.140Z,17.27
2022-11-12T13:55:24.959Z,17.33
2022-11-12T13:58:30.182Z,17.67
2022-11-12T14:01:20.925Z,17.67
2022-11-12T14:04:10.788Z,17.33
2022-11-12T14:07:17.550Z,17.25
2022-11-12T14:10:34.727Z,22.42
2022-11-12T14:16:18.180Z,19.42
2022-11-12T14:19:31.161Z,18.88
2022-11-12T14:22:19.223Z,18.30
2022-11-12T14:25:24.476Z,18.88
2022-11-12T14:28:29.507Z,19.63
2022-11-12T14:31:23.657Z,19.02
2022-11-12T14:34:30.436Z,18.83
2022-11-12T14:37:41.572Z,19.90
2022-11-12T14:40:31.887Z,19.42
2022-11-12T14:43:27.294Z,20.05
2022-11-12T14:46:43.981Z,18.45
2022-11-12T14:49:29.940Z,21.10
2022-11-12T14:52:19.285Z,20.17
2022-11-12T14:55:15.192Z,20.63
2022-11-12T14:58:01.771Z,20.95
2022-11-12T15:00:50.578Z,22.45
2022-11-12T15:03:36.666Z,22.42
2022-11-12T15:09:37.481Z,23.33
2022-11-12T15:12:28.915Z,26.42
2022-11-12T15:15:23.534Z,23.52
2022-11-12T15:18:19.229Z,23.45
2022-11-12T15:21:28.476Z,24.92
2022-11-12T15:24:19.225Z,25.73
2022-11-12T15:27:39.101Z,24.48
2022-11-12T15:30:31.611Z,26.13
2022-11-12T15:33:23.576Z,25.98
2022-11-12T15:36:27.641Z,27.02
2022-11-12T15:39:14.368Z,34.33
2022-11-12T15:42:06.756Z,29.35
2022-11-12T15:44:59.449Z,30.80
2022-11-12T15:47:45.908Z,46.00
2022-11-12T15:50:31.888Z,32.17
2022-11-12T15:53:18.079Z,30.65
2022-11-12T15:56:06.550Z,29.00
2022-11-12T15:58:52.505Z,29.90
2022-11-12T16:01:38.572Z,27.02
2022-11-12T16:04:25.751Z,27.52
2022-11-12T16:07:12.125Z,28.52
2022-11-12T16:12:44.532Z,26.00
2022-11-12T16:15:33.983Z,26.20
2022-11-12T16:18:20.139Z,25.17
2022-11-12T16:21:20.448Z,24.98
2022-11-12T16:24:07.331Z,23.33
2022-11-12T16:26:56.214Z,23.55
2022-11-12T16:29:42.156Z,23.55
2022-11-12T16:32:30.723Z,24.17
2022-11-12T16:35:19.021Z,24.50
2022-11-12T16:38:17.011Z,25.15
2022-11-12T16:41:35.392Z,24.75
2022-11-12T16:44:22.509Z,25.25
2022-11-12T16:47:11.204Z,25.67
2022-11-12T16:49:57.611Z,24.95
2022-11-12T16:52:44.137Z,25.42
2022-11-12T16:55:34.815Z,27.52
2022-11-12T16:58:24.660Z,23.75
2022-11-12T17:01:23.457Z,26.17
2022-11-12T17:04:09.801Z,26.63
2022-11-12T17:06:55.919Z,24.27
2022-11-12T17:09:42.620Z,24.73
2022-11-12T17:12:29.704Z,27.38
2022-11-12T17:15:16.922Z,24.67
2022-11-12T17:18:03.369Z,26.05
2022-11-12T17:20:51.371Z,24.33
2022-11-12T17:23:37.794Z,26.38
2022-11-12T17:26:24.246Z,26.48
2022-11-12T17:29:10.166Z,27.70
2022-11-12T17:34:41.928Z,25.17
2022-11-12T17:40:13.606Z,26.83
2022-11-12T17:45:54.180Z,27.10
2022-11-12T17:48:41.178Z,26.85
2022-11-12T17:51:28.496Z,27.70
2022-11-12T17:54:14.590Z,28.73
2022-11-12T17:57:00.382Z,30.52
2022-11-12T17:59:46.148Z,28.17
2022-11-12T18:02:32.135Z,28.83
2022-11-12T18:05:18.287Z,29.90
2022-11-12T18:08:04.704Z,30.15
2022-11-12T18:10:51.671Z,30.10
2022-11-12T18:13:38.637Z,31.13
2022-11-12T18:16:27.566Z,30.92
2022-11-12T18:19:14.247Z,29.67
2022-11-12T18:22:02.272Z,31.70
2022-11-12T18:24:48.271Z,29.00
2022-11-12T18:27:34.273Z,28.83
2022-11-12T18:30:20.023Z,28.00
2022-11-12T18:33:06.416Z,33.15
2022-11-12T18:36:06.243Z,31.40
2022-11-12T18:38:53.260Z,31.50
2022-11-12T18:41:39.357Z,31.55
2022-11-12T18:44:26.246Z,32.50
2022-11-12T18:47:12.236Z,28.00
2022-11-12T18:53:40.047Z,31.30
2022-11-12T18:56:26.546Z,61.25
2022-11-12T18:59:15.558Z,47.75
2022-11-12T19:02:01.591Z,34.75
2022-11-12T19:04:49.668Z,34.20
2022-11-12T19:07:35.782Z,32.90
2022-11-12T19:10:22.082Z,31.70
2022-11-12T19:13:07.778Z,30.02
2022-11-12T19:15:56.504Z,30.45
2022-11-12T19:18:43.322Z,45.95
2022-11-12T19:21:29.340Z,45.72
2022-11-12T19:24:15.101Z,37.50
2022-11-12T19:27:00.889Z,35.10
2022-11-12T19:29:49.487Z,39.15
2022-11-12T19:32:35.464Z,35.42
2022-11-12T19:35:21.565Z,33.67
2022-11-12T19:38:07.270Z,32.10
2022-11-12T19:40:53.195Z,33.67
2022-11-12T19:43:41.592Z,31.00
2022-11-12T19:46:32.575Z,31.48
2022-11-12T19:49:18.651Z,36.72
2022-11-12T19:52:04.682Z,38.78
2022-11-12T19:54:50.562Z,40.90
2022-11-12T19:57:36.320Z,40.47
2022-11-12T20:03:07.787Z,42.53
2022-11-12T20:06:03.026Z,37.58
2022-11-12T20:08:49.246Z,36.25
2022-11-12T20:11:35.654Z,36.05
2022-11-12T20:14:21.843Z,35.10
2022-11-12T20:17:07.628Z,38.83
2022-11-12T20:19:53.588Z,34.33
2022-11-12T20:25:28.690Z,34.90
2022-11-12T20:28:14.372Z,37.78
2022-11-12T20:31:11.206Z,33.55
2022-11-12T20:33:57.157Z,37.53
2022-11-12T20:36:42.893Z,36.25
2022-11-12T20:39:28.650Z,36.97
2022-11-12T20:42:14.421Z,34.45
2022-11-12T20:45:00.594Z,35.97
2022-11-12T20:47:46.336Z,36.88
2022-11-12T20:53:18.256Z,40.97
2022-11-12T20:56:09.750Z,36.38
2022-11-12T20:58:56.933Z,36.15
2022-11-12T21:01:42.969Z,33.40
2022-11-12T21:07:14.923Z,33.15
2022-11-12T21:10:00.905Z,33.65
2022-11-12T21:15:32.233Z,32.70
2022-11-12T21:18:18.798Z,31.60
2022-11-12T21:21:06.104Z,32.33
2022-11-12T21:23:53.915Z,32.67
2022-11-12T21:26:40.142Z,31.70
2022-11-12T21:29:25.982Z,31.73
2022-11-12T21:32:11.772Z,33.42
2022-11-12T21:34:57.540Z,31.98
2022-11-12T21:37:43.254Z,30.60
2022-11-12T21:40:29.084Z,30.75
2022-11-12T21:46:01.069Z,29.20
2022-11-12T21:48:52.252Z,33.80
2022-11-12T21:51:40.438Z,31.85
2022-11-12T21:54:26.231Z,38.40
2022-11-12T21:57:16.122Z,32.63
2022-11-12T22:00:39.282Z,30.05
2022-11-12T22:03:11.232Z,33.42
2022-11-12T22:08:43.207Z,36.88
2022-11-12T22:11:29.233Z,31.55
2022-11-12T22:17:00.640Z,33.05
2022-11-12T22:19:46.415Z,31.40
2022-11-12T22:22:32.226Z,31.80
2022-11-12T22:25:18.138Z,31.63
2022-11-12T22:30:50.152Z,30.33
2022-11-12T22:33:36.364Z,34.83
2022-11-12T22:36:24.247Z,30.80
2022-11-12T22:39:10.148Z,32.22
2022-11-12T22:41:55.940Z,32.35
2022-11-12T22:47:27.658Z,32.65
2022-11-12T22:50:13.996Z,31.08
2022-11-12T22:53:00.323Z,30.23
2022-11-12T22:58:41.608Z,30.45
2022-11-12T23:05:11.644Z,30.70
2022-11-12T23:07:57.954Z,30.80
2022-11-12T23:10:46.002Z,35.22
2022-11-12T23:13:32.457Z,32.78
2022-11-12T23:16:26.267Z,32.13
2022-11-12T23:19:12.303Z,31.98
2022-11-12T23:21:58.157Z,30.30
2022-11-12T23:24:43.905Z,30.90
2022-11-12T23:30:15.918Z,28.63
2022-11-12T23:33:02.599Z,29.55
2022-11-12T23:35:48.703Z,28.42
2022-11-12T23:38:34.827Z,26.35
2022-11-12T23:41:23.012Z,25.02
2022-11-12T23:44:09.072Z,19.15
2022-11-12T23:46:55.064Z,13.73
2022-11-12T23:49:40.978Z,10.75
2022-11-12T23:55:12.409Z,5.57
2022-11-12T23:57:58.285Z,5.50
